VEGT/GAU METAR and TAF weather

Enter ICAO airport designator
Station Type Date Time Source
VEGT METAR 2020/04/05 20:30 UTC NOAA

VEGT 052030Z 00000KT 3000 BR FEW020 SCT100 21/16 Q1009 NOSIG


Station Type Date Time Source
VEGT Decoded METAR 2020/04/05 20:30 UTC NOAA

Gauhati, India (VEGT) 26-06N 091-35E 54M
Apr 05, 2020 - 04:30 PM EDT / 2020.04.05 2030 UTC
Wind: Calm:0
Visibility: 1 mile(s):0
Sky conditions: partly cloudy
Weather: mist
Temperature: 69 F (21 C)
Dew Point: 60 F (16 C)
Relative Humidity: 73%
Pressure (altimeter): 29.80 in. Hg (1009 hPa)
ob: VEGT 052030Z 00000KT 3000 BR FEW020 SCT100 21/16 Q1009 NOSIG
cycle: 20

Station Type Date Time Source
VEGT TAF 2016/03/24 00:45 UTC NOAA

TAF VEGT 242300Z 2500/2606 00000KT 2000 BR FEW020
BECMG 2503/2506 05008KT 4000 HZ
BECMG 2506/2509 5000 HZ
BECMG 2512/2514 00000KT 4000 HZ FEW020 SCT100
BECMG 2515/2518 2500 HZ
BECMG 2603/2606 05008KT 4000 HZ FEW020=

Example: see airport list